sensor_id;sensor_type;location;lat;lon;timestamp;P1;durP1;ratioP1;P2;durP2;ratioP2
8665;SDS011;4370;48.916;8.380;2023-03-01T00:01:12;19.80;;;12.63;;
8665;SDS011;4370;48.916;8.380;2023-03-01T00:03:45;20.47;;;11.87;;
8665;SDS011;4370;48.916;8.380;2023-03-01T00:06:11;20.20;;;12.60;;
8665;SDS011;4370;48.916;8.380;2023-03-01T00:08:37;18.43;;;12.17;;
8665;SDS011;4370;48.916;8.380;2023-03-01T00:11:07;20.10;;;12.20;;
8665;SDS011;4370;48.916;8.380;2023-03-01T00:13:34;19.87;;;12.87;;
8665;SDS011;4370;48.916;8.380;2023-03-01T00:16:04;22.27;;;12.37;;
8665;SDS011;4370;48.916;8.380;2023-03-01T00:18:30;20.47;;;13.07;;
8665;SDS011;4370;48.916;8.380;2023-03-01T00:20:56;19.07;;;11.63;;
8665;SDS011;4370;48.916;8.380;2023-03-01T00:23:22;16.77;;;10.93;;
8665;SDS011;4370;48.916;8.380;2023-03-01T00:25:49;19.47;;;12.80;;
8665;SDS011;4370;48.916;8.380;2023-03-01T00:28:15;21.53;;;12.90;;
8665;SDS011;4370;48.916;8.380;2023-03-01T00:30:41;19.87;;;12.77;;
8665;SDS011;4370;48.916;8.380;2023-03-01T00:35:41;19.40;;;12.07;;
8665;SDS011;4370;48.916;8.380;2023-03-01T00:38:07;21.80;;;12.67;;
8665;SDS011;4370;48.916;8.380;2023-03-01T00:40:34;18.03;;;12.00;;
8665;SDS011;4370;48.916;8.380;2023-03-01T00:43:00;19.30;;;12.37;;
8665;SDS011;4370;48.916;8.380;2023-03-01T00:45:27;20.40;;;12.27;;
8665;SDS011;4370;48.916;8.380;2023-03-01T00:47:53;21.90;;;13.10;;
8665;SDS011;4370;48.916;8.380;2023-03-01T00:50:19;19.20;;;13.13;;
8665;SDS011;4370;48.916;8.380;2023-03-01T00:52:46;19.37;;;12.50;;
8665;SDS011;4370;48.916;8.380;2023-03-01T00:55:12;20.57;;;13.10;;
8665;SDS011;4370;48.916;8.380;2023-03-01T00:57:38;22.03;;;11.87;;
8665;SDS011;4370;48.916;8.380;2023-03-01T01:00:05;19.83;;;12.10;;
8665;SDS011;4370;48.916;8.380;2023-03-01T01:02:34;23.23;;;12.37;;
8665;SDS011;4370;48.916;8.380;2023-03-01T01:05:00;20.33;;;12.20;;
8665;SDS011;4370;48.916;8.380;2023-03-01T01:07:25;18.90;;;13.00;;
8665;SDS011;4370;48.916;8.380;2023-03-01T01:09:51;20.73;;;12.40;;
8665;SDS011;4370;48.916;8.380;2023-03-01T01:12:17;20.20;;;12.83;;
8665;SDS011;4370;48.916;8.380;2023-03-01T01:14:43;21.60;;;13.07;;
8665;SDS011;4370;48.916;8.380;2023-03-01T01:17:09;20.43;;;12.47;;
8665;SDS011;4370;48.916;8.380;2023-03-01T01:19:35;20.13;;;12.80;;
8665;SDS011;4370;48.916;8.380;2023-03-01T01:22:01;19.40;;;12.47;;
8665;SDS011;4370;48.916;8.380;2023-03-01T01:24:28;19.07;;;12.40;;
8665;SDS011;4370;48.916;8.380;2023-03-01T01:26:54;24.47;;;13.40;;
8665;SDS011;4370;48.916;8.380;2023-03-01T01:29:19;21.77;;;12.80;;
8665;SDS011;4370;48.916;8.380;2023-03-01T01:31:45;19.30;;;13.00;;
8665;SDS011;4370;48.916;8.380;2023-03-01T01:34:15;20.20;;;12.90;;
8665;SDS011;4370;48.916;8.380;2023-03-01T01:36:43;19.53;;;12.33;;
8665;SDS011;4370;48.916;8.380;2023-03-01T01:39:12;19.87;;;12.47;;
8665;SDS011;4370;48.916;8.380;2023-03-01T01:41:39;19.67;;;13.07;;
8665;SDS011;4370;48.916;8.380;2023-03-01T01:44:13;23.00;;;13.10;;
8665;SDS011;4370;48.916;8.380;2023-03-01T01:46:44;20.33;;;12.27;;
8665;SDS011;4370;48.916;8.380;2023-03-01T01:52:02;18.97;;;11.77;;
8665;SDS011;4370;48.916;8.380;2023-03-01T01:54:42;23.93;;;12.73;;
8665;SDS011;4370;48.916;8.380;2023-03-01T01:57:14;19.10;;;12.20;;
8665;SDS011;4370;48.916;8.380;2023-03-01T01:59:42;20.10;;;12.47;;
8665;SDS011;4370;48.916;8.380;2023-03-01T02:02:09;21.03;;;12.63;;
8665;SDS011;4370;48.916;8.380;2023-03-01T02:04:35;20.37;;;12.00;;
8665;SDS011;4370;48.916;8.380;2023-03-01T02:07:02;25.50;;;13.67;;
8665;SDS011;4370;48.916;8.380;2023-03-01T02:09:29;18.80;;;11.83;;
8665;SDS011;4370;48.916;8.380;2023-03-01T02:11:56;19.07;;;12.20;;
8665;SDS011;4370;48.916;8.380;2023-03-01T02:14:22;20.20;;;12.97;;
8665;SDS011;4370;48.916;8.380;2023-03-01T02:16:48;20.70;;;12.13;;
8665;SDS011;4370;48.916;8.380;2023-03-01T02:19:25;19.07;;;12.93;;
8665;SDS011;4370;48.916;8.380;2023-03-01T02:22:00;20.13;;;12.90;;
8665;SDS011;4370;48.916;8.380;2023-03-01T02:24:33;22.20;;;12.33;;
8665;SDS011;4370;48.916;8.380;2023-03-01T02:27:12;19.07;;;12.70;;
8665;SDS011;4370;48.916;8.380;2023-03-01T02:29:38;21.77;;;13.07;;
8665;SDS011;4370;48.916;8.380;2023-03-01T02:32:04;19.17;;;12.43;;
8665;SDS011;4370;48.916;8.380;2023-03-01T02:34:31;21.37;;;13.73;;
8665;SDS011;4370;48.916;8.380;2023-03-01T02:37:08;24.00;;;13.07;;
8665;SDS011;4370;48.916;8.380;2023-03-01T02:39:40;19.83;;;12.63;;
8665;SDS011;4370;48.916;8.380;2023-03-01T02:42:11;20.97;;;12.37;;
8665;SDS011;4370;48.916;8.380;2023-03-01T02:44:38;20.07;;;12.27;;
8665;SDS011;4370;48.916;8.380;2023-03-01T02:47:04;21.73;;;12.73;;
8665;SDS011;4370;48.916;8.380;2023-03-01T02:49:32;20.57;;;13.07;;
8665;SDS011;4370;48.916;8.380;2023-03-01T02:54:46;20.20;;;12.67;;
8665;SDS011;4370;48.916;8.380;2023-03-01T02:57:27;22.10;;;13.30;;
8665;SDS011;4370;48.916;8.380;2023-03-01T02:59:55;22.73;;;14.27;;
8665;SDS011;4370;48.916;8.380;2023-03-01T03:02:23;21.23;;;12.97;;
8665;SDS011;4370;48.916;8.380;2023-03-01T03:05:18;22.27;;;13.40;;
8665;SDS011;4370;48.916;8.380;2023-03-01T03:07:45;20.07;;;12.90;;
8665;SDS011;4370;48.916;8.380;2023-03-01T03:10:13;27.47;;;13.80;;
8665;SDS011;4370;48.916;8.380;2023-03-01T03:12:39;21.43;;;13.67;;
8665;SDS011;4370;48.916;8.380;2023-03-01T03:15:06;21.80;;;13.30;;
8665;SDS011;4370;48.916;8.380;2023-03-01T03:17:36;23.10;;;14.37;;
8665;SDS011;4370;48.916;8.380;2023-03-01T03:20:03;22.20;;;14.83;;
8665;SDS011;4370;48.916;8.380;2023-03-01T03:22:30;24.70;;;14.00;;
8665;SDS011;4370;48.916;8.380;2023-03-01T03:24:58;24.07;;;15.07;;
8665;SDS011;4370;48.916;8.380;2023-03-01T03:27:24;24.23;;;15.20;;
8665;SDS011;4370;48.916;8.380;2023-03-01T03:29:50;24.13;;;15.07;;
8665;SDS011;4370;48.916;8.380;2023-03-01T03:32:16;24.97;;;14.80;;
8665;SDS011;4370;48.916;8.380;2023-03-01T03:34:42;22.87;;;14.97;;
8665;SDS011;4370;48.916;8.380;2023-03-01T03:37:08;24.17;;;14.47;;
8665;SDS011;4370;48.916;8.380;2023-03-01T03:39:53;23.40;;;15.27;;
8665;SDS011;4370;48.916;8.380;2023-03-01T03:42:20;25.07;;;15.73;;
8665;SDS011;4370;48.916;8.380;2023-03-01T03:44:47;24.53;;;15.50;;
8665;SDS011;4370;48.916;8.380;2023-03-01T03:47:13;23.13;;;14.90;;
8665;SDS011;4370;48.916;8.380;2023-03-01T03:49:39;23.30;;;15.37;;
8665;SDS011;4370;48.916;8.380;2023-03-01T03:52:05;26.13;;;14.87;;
8665;SDS011;4370;48.916;8.380;2023-03-01T03:54:38;24.97;;;15.37;;
8665;SDS011;4370;48.916;8.380;2023-03-01T03:57:06;24.03;;;15.60;;
8665;SDS011;4370;48.916;8.380;2023-03-01T03:59:32;28.47;;;17.10;;
8665;SDS011;4370;48.916;8.380;2023-03-01T04:01:58;24.80;;;15.20;;
8665;SDS011;4370;48.916;8.380;2023-03-01T04:04:25;26.27;;;15.17;;
8665;SDS011;4370;48.916;8.380;2023-03-01T04:06:51;25.27;;;15.23;;
8665;SDS011;4370;48.916;8.380;2023-03-01T04:09:17;25.37;;;14.83;;
8665;SDS011;4370;48.916;8.380;2023-03-01T04:11:43;23.73;;;14.60;;
8665;SDS011;4370;48.916;8.380;2023-03-01T04:14:09;27.80;;;15.07;;
8665;SDS011;4370;48.916;8.380;2023-03-01T04:16:35;24.93;;;15.13;;
8665;SDS011;4370;48.916;8.380;2023-03-01T04:19:01;27.30;;;15.43;;
8665;SDS011;4370;48.916;8.380;2023-03-01T04:21:27;24.57;;;15.30;;
8665;SDS011;4370;48.916;8.380;2023-03-01T04:23:53;26.90;;;15.87;;
8665;SDS011;4370;48.916;8.380;2023-03-01T04:26:19;25.70;;;16.10;;
8665;SDS011;4370;48.916;8.380;2023-03-01T04:28:45;25.13;;;15.20;;
8665;SDS011;4370;48.916;8.380;2023-03-01T04:31:15;23.20;;;14.60;;
8665;SDS011;4370;48.916;8.380;2023-03-01T04:33:43;23.90;;;14.37;;
8665;SDS011;4370;48.916;8.380;2023-03-01T04:36:10;27.63;;;16.90;;
8665;SDS011;4370;48.916;8.380;2023-03-01T04:38:37;26.57;;;14.57;;
8665;SDS011;4370;48.916;8.380;2023-03-01T04:41:07;25.47;;;16.20;;
8665;SDS011;4370;48.916;8.380;2023-03-01T04:43:33;27.57;;;16.47;;
8665;SDS011;4370;48.916;8.380;2023-03-01T04:46:00;24.87;;;15.63;;
8665;SDS011;4370;48.916;8.380;2023-03-01T04:48:27;24.27;;;15.33;;
8665;SDS011;4370;48.916;8.380;2023-03-01T04:50:53;27.17;;;16.53;;
8665;SDS011;4370;48.916;8.380;2023-03-01T04:53:19;29.10;;;16.87;;
8665;SDS011;4370;48.916;8.380;2023-03-01T04:55:45;27.67;;;17.93;;
8665;SDS011;4370;48.916;8.380;2023-03-01T04:58:11;24.67;;;16.10;;
8665;SDS011;4370;48.916;8.380;2023-03-01T05:00:37;27.43;;;17.33;;
8665;SDS011;4370;48.916;8.380;2023-03-01T05:03:03;28.93;;;16.23;;
8665;SDS011;4370;48.916;8.380;2023-03-01T05:05:33;25.50;;;17.37;;
8665;SDS011;4370;48.916;8.380;2023-03-01T05:08:00;27.43;;;16.83;;
8665;SDS011;4370;48.916;8.380;2023-03-01T05:10:27;26.30;;;16.90;;
8665;SDS011;4370;48.916;8.380;2023-03-01T05:12:54;26.57;;;16.93;;
8665;SDS011;4370;48.916;8.380;2023-03-01T05:15:22;26.43;;;16.50;;
8665;SDS011;4370;48.916;8.380;2023-03-01T05:17:50;24.97;;;16.57;;
8665;SDS011;4370;48.916;8.380;2023-03-01T05:20:16;25.90;;;15.57;;
8665;SDS011;4370;48.916;8.380;2023-03-01T05:22:42;24.87;;;16.63;;
8665;SDS011;4370;48.916;8.380;2023-03-01T05:25:08;29.87;;;17.23;;
8665;SDS011;4370;48.916;8.380;2023-03-01T05:27:34;27.50;;;17.07;;
8665;SDS011;4370;48.916;8.380;2023-03-01T05:30:00;25.20;;;16.27;;
8665;SDS011;4370;48.916;8.380;2023-03-01T05:32:38;26.00;;;16.30;;
8665;SDS011;4370;48.916;8.380;2023-03-01T05:35:04;29.57;;;16.93;;
8665;SDS011;4370;48.916;8.380;2023-03-01T05:37:30;29.90;;;17.33;;
8665;SDS011;4370;48.916;8.380;2023-03-01T05:39:56;27.40;;;17.43;;
8665;SDS011;4370;48.916;8.380;2023-03-01T05:42:22;28.57;;;18.27;;
8665;SDS011;4370;48.916;8.380;2023-03-01T05:44:48;27.67;;;17.63;;
8665;SDS011;4370;48.916;8.380;2023-03-01T05:47:14;26.97;;;16.87;;
8665;SDS011;4370;48.916;8.380;2023-03-01T05:49:40;30.30;;;17.33;;
8665;SDS011;4370;48.916;8.380;2023-03-01T05:52:06;26.70;;;16.43;;
8665;SDS011;4370;48.916;8.380;2023-03-01T05:54:32;28.60;;;15.93;;
8665;SDS011;4370;48.916;8.380;2023-03-01T05:56:58;26.40;;;16.27;;
8665;SDS011;4370;48.916;8.380;2023-03-01T05:59:24;30.87;;;17.67;;
8665;SDS011;4370;48.916;8.380;2023-03-01T06:01:50;29.37;;;17.63;;
8665;SDS011;4370;48.916;8.380;2023-03-01T06:04:16;27.60;;;17.60;;
8665;SDS011;4370;48.916;8.380;2023-03-01T06:06:41;31.83;;;17.37;;
8665;SDS011;4370;48.916;8.380;2023-03-01T06:09:07;29.17;;;17.40;;
8665;SDS011;4370;48.916;8.380;2023-03-01T06:11:35;27.93;;;17.40;;
8665;SDS011;4370;48.916;8.380;2023-03-01T06:14:01;25.77;;;16.00;;
8665;SDS011;4370;48.916;8.380;2023-03-01T06:16:27;29.80;;;16.77;;
8665;SDS011;4370;48.916;8.380;2023-03-01T06:18:53;26.53;;;17.93;;
8665;SDS011;4370;48.916;8.380;2023-03-01T06:21:18;26.37;;;16.40;;
8665;SDS011;4370;48.916;8.380;2023-03-01T06:23:44;27.30;;;16.63;;
8665;SDS011;4370;48.916;8.380;2023-03-01T06:26:10;27.47;;;16.93;;
8665;SDS011;4370;48.916;8.380;2023-03-01T06:28:36;26.73;;;16.23;;
8665;SDS011;4370;48.916;8.380;2023-03-01T06:31:02;26.37;;;16.00;;
8665;SDS011;4370;48.916;8.380;2023-03-01T06:33:28;28.17;;;16.17;;
8665;SDS011;4370;48.916;8.380;2023-03-01T06:35:55;25.90;;;16.03;;
8665;SDS011;4370;48.916;8.380;2023-03-01T06:38:21;30.70;;;17.07;;
8665;SDS011;4370;48.916;8.380;2023-03-01T06:40:52;28.77;;;17.10;;
8665;SDS011;4370;48.916;8.380;2023-03-01T06:43:22;28.50;;;17.30;;
8665;SDS011;4370;48.916;8.380;2023-03-01T06:45:48;26.53;;;16.67;;
8665;SDS011;4370;48.916;8.380;2023-03-01T06:48:14;27.37;;;16.90;;
8665;SDS011;4370;48.916;8.380;2023-03-01T06:50:40;29.03;;;16.53;;
8665;SDS011;4370;48.916;8.380;2023-03-01T06:53:06;29.33;;;16.30;;
8665;SDS011;4370;48.916;8.380;2023-03-01T06:55:32;28.40;;;16.43;;
8665;SDS011;4370;48.916;8.380;2023-03-01T06:57:59;28.97;;;16.47;;
8665;SDS011;4370;48.916;8.380;2023-03-01T07:00:25;26.43;;;16.20;;
8665;SDS011;4370;48.916;8.380;2023-03-01T07:02:52;28.33;;;16.10;;
8665;SDS011;4370;48.916;8.380;2023-03-01T07:05:17;28.57;;;17.20;;
8665;SDS011;4370;48.916;8.380;2023-03-01T07:07:44;29.03;;;17.17;;
8665;SDS011;4370;48.916;8.380;2023-03-01T07:10:10;29.07;;;16.47;;
8665;SDS011;4370;48.916;8.380;2023-03-01T07:12:36;26.97;;;16.13;;
8665;SDS011;4370;48.916;8.380;2023-03-01T07:15:03;29.30;;;17.13;;
8665;SDS011;4370;48.916;8.380;2023-03-01T07:17:29;28.13;;;17.00;;
8665;SDS011;4370;48.916;8.380;2023-03-01T07:19:55;30.97;;;17.87;;
8665;SDS011;4370;48.916;8.380;2023-03-01T07:22:21;31.47;;;17.47;;
8665;SDS011;4370;48.916;8.380;2023-03-01T07:24:47;27.50;;;16.93;;
8665;SDS011;4370;48.916;8.380;2023-03-01T07:27:13;29.13;;;16.70;;
8665;SDS011;4370;48.916;8.380;2023-03-01T07:29:39;28.77;;;16.77;;
8665;SDS011;4370;48.916;8.380;2023-03-01T07:32:06;27.17;;;17.10;;
8665;SDS011;4370;48.916;8.380;2023-03-01T07:34:32;27.40;;;16.63;;
8665;SDS011;4370;48.916;8.380;2023-03-01T07:36:58;25.53;;;16.83;;
8665;SDS011;4370;48.916;8.380;2023-03-01T07:39:24;32.67;;;17.30;;
8665;SDS011;4370;48.916;8.380;2023-03-01T07:41:50;31.17;;;17.03;;
8665;SDS011;4370;48.916;8.380;2023-03-01T07:44:16;28.33;;;17.47;;
8665;SDS011;4370;48.916;8.380;2023-03-01T07:46:42;27.73;;;17.37;;
8665;SDS011;4370;48.916;8.380;2023-03-01T07:49:08;29.60;;;17.63;;
8665;SDS011;4370;48.916;8.380;2023-03-01T07:51:34;28.87;;;16.90;;
8665;SDS011;4370;48.916;8.380;2023-03-01T07:54:00;28.70;;;17.33;;
8665;SDS011;4370;48.916;8.380;2023-03-01T07:56:26;29.53;;;17.50;;
8665;SDS011;4370;48.916;8.380;2023-03-01T07:58:52;30.50;;;18.13;;
8665;SDS011;4370;48.916;8.380;2023-03-01T08:01:19;26.23;;;16.47;;
8665;SDS011;4370;48.916;8.380;2023-03-01T08:03:45;27.57;;;17.40;;
8665;SDS011;4370;48.916;8.380;2023-03-01T08:06:12;31.43;;;17.50;;
8665;SDS011;4370;48.916;8.380;2023-03-01T08:08:38;25.17;;;16.97;;
8665;SDS011;4370;48.916;8.380;2023-03-01T08:11:05;26.80;;;17.47;;
8665;SDS011;4370;48.916;8.380;2023-03-01T08:13:31;28.77;;;17.17;;
8665;SDS011;4370;48.916;8.380;2023-03-01T08:16:07;32.03;;;18.17;;
8665;SDS011;4370;48.916;8.380;2023-03-01T08:18:34;31.03;;;18.23;;
8665;SDS011;4370;48.916;8.380;2023-03-01T08:21:07;28.80;;;17.57;;
8665;SDS011;4370;48.916;8.380;2023-03-01T08:23:33;30.10;;;18.27;;
8665;SDS011;4370;48.916;8.380;2023-03-01T08:26:03;30.83;;;17.93;;
8665;SDS011;4370;48.916;8.380;2023-03-01T08:28:29;29.80;;;18.37;;
8665;SDS011;4370;48.916;8.380;2023-03-01T08:30:55;28.17;;;17.13;;
8665;SDS011;4370;48.916;8.380;2023-03-01T08:33:21;27.17;;;17.47;;
8665;SDS011;4370;48.916;8.380;2023-03-01T08:35:46;27.20;;;16.83;;
8665;SDS011;4370;48.916;8.380;2023-03-01T08:38:12;25.93;;;16.33;;
8665;SDS011;4370;48.916;8.380;2023-03-01T08:40:38;27.73;;;17.80;;
8665;SDS011;4370;48.916;8.380;2023-03-01T08:43:04;28.53;;;17.80;;
8665;SDS011;4370;48.916;8.380;2023-03-01T08:45:29;29.07;;;18.67;;
8665;SDS011;4370;48.916;8.380;2023-03-01T08:47:55;26.43;;;17.73;;
8665;SDS011;4370;48.916;8.380;2023-03-01T08:50:21;28.03;;;17.93;;
8665;SDS011;4370;48.916;8.380;2023-03-01T08:52:49;28.57;;;17.70;;
8665;SDS011;4370;48.916;8.380;2023-03-01T08:55:15;29.37;;;17.70;;
8665;SDS011;4370;48.916;8.380;2023-03-01T08:57:42;27.83;;;18.33;;
8665;SDS011;4370;48.916;8.380;2023-03-01T09:00:08;31.43;;;17.57;;
8665;SDS011;4370;48.916;8.380;2023-03-01T09:02:34;28.43;;;17.20;;
8665;SDS011;4370;48.916;8.380;2023-03-01T09:05:00;28.27;;;17.77;;
8665;SDS011;4370;48.916;8.380;2023-03-01T09:07:26;30.17;;;17.63;;
8665;SDS011;4370;48.916;8.380;2023-03-01T09:09:53;27.80;;;17.87;;
8665;SDS011;4370;48.916;8.380;2023-03-01T09:12:20;26.93;;;17.40;;
8665;SDS011;4370;48.916;8.380;2023-03-01T09:14:46;27.73;;;17.77;;
8665;SDS011;4370;48.916;8.380;2023-03-01T09:17:11;26.67;;;17.33;;
8665;SDS011;4370;48.916;8.380;2023-03-01T09:19:37;29.67;;;17.53;;
8665;SDS011;4370;48.916;8.380;2023-03-01T09:22:04;24.73;;;16.87;;
8665;SDS011;4370;48.916;8.380;2023-03-01T09:24:30;30.47;;;17.60;;
8665;SDS011;4370;48.916;8.380;2023-03-01T09:26:56;28.80;;;17.07;;
8665;SDS011;4370;48.916;8.380;2023-03-01T09:29:22;28.70;;;17.63;;
8665;SDS011;4370;48.916;8.380;2023-03-01T09:31:48;26.87;;;17.13;;
8665;SDS011;4370;48.916;8.380;2023-03-01T09:34:14;27.60;;;17.43;;
8665;SDS011;4370;48.916;8.380;2023-03-01T09:36:44;27.73;;;17.97;;
8665;SDS011;4370;48.916;8.380;2023-03-01T09:39:09;26.43;;;17.40;;
8665;SDS011;4370;48.916;8.380;2023-03-01T09:46:50;29.20;;;18.07;;
8665;SDS011;4370;48.916;8.380;2023-03-01T09:49:18;27.20;;;17.80;;
8665;SDS011;4370;48.916;8.380;2023-03-01T09:51:48;28.93;;;17.03;;
8665;SDS011;4370;48.916;8.380;2023-03-01T09:54:19;26.80;;;17.43;;
8665;SDS011;4370;48.916;8.380;2023-03-01T10:05:11;29.47;;;17.43;;
8665;SDS011;4370;48.916;8.380;2023-03-01T10:10:21;30.10;;;18.13;;
8665;SDS011;4370;48.916;8.380;2023-03-01T10:12:52;27.23;;;17.90;;
8665;SDS011;4370;48.916;8.380;2023-03-01T10:15:20;25.77;;;18.17;;
8665;SDS011;4370;48.916;8.380;2023-03-01T10:18:04;26.97;;;17.40;;
8665;SDS011;4370;48.916;8.380;2023-03-01T10:23:03;31.47;;;17.83;;
8665;SDS011;4370;48.916;8.380;2023-03-01T10:28:18;26.97;;;17.63;;
8665;SDS011;4370;48.916;8.380;2023-03-01T10:30:45;25.90;;;17.53;;
8665;SDS011;4370;48.916;8.380;2023-03-01T10:33:16;27.30;;;17.33;;
8665;SDS011;4370;48.916;8.380;2023-03-01T10:35:48;28.40;;;17.17;;
8665;SDS011;4370;48.916;8.380;2023-03-01T10:38:14;27.87;;;18.47;;
8665;SDS011;4370;48.916;8.380;2023-03-01T10:40:57;27.03;;;17.90;;
8665;SDS011;4370;48.916;8.380;2023-03-01T10:46:23;32.40;;;17.37;;
8665;SDS011;4370;48.916;8.380;2023-03-01T10:51:39;26.53;;;17.33;;
8665;SDS011;4370;48.916;8.380;2023-03-01T10:54:06;31.07;;;17.97;;
8665;SDS011;4370;48.916;8.380;2023-03-01T10:56:53;25.50;;;16.87;;
8665;SDS011;4370;48.916;8.380;2023-03-01T10:59:41;25.87;;;17.27;;
8665;SDS011;4370;48.916;8.380;2023-03-01T11:04:35;26.53;;;17.40;;
8665;SDS011;4370;48.916;8.380;2023-03-01T11:07:01;26.73;;;17.73;;
8665;SDS011;4370;48.916;8.380;2023-03-01T11:09:31;27.40;;;18.20;;
8665;SDS011;4370;48.916;8.380;2023-03-01T11:12:03;28.50;;;18.30;;
8665;SDS011;4370;48.916;8.380;2023-03-01T11:14:32;26.20;;;17.37;;
8665;SDS011;4370;48.916;8.380;2023-03-01T11:17:03;29.03;;;17.10;;
8665;SDS011;4370;48.916;8.380;2023-03-01T11:19:30;23.73;;;16.83;;
8665;SDS011;4370;48.916;8.380;2023-03-01T11:22:13;26.07;;;17.27;;
8665;SDS011;4370;48.916;8.380;2023-03-01T11:24:46;27.60;;;17.17;;
8665;SDS011;4370;48.916;8.380;2023-03-01T11:27:15;27.77;;;17.50;;
8665;SDS011;4370;48.916;8.380;2023-03-01T11:32:20;28.70;;;17.57;;
8665;SDS011;4370;48.916;8.380;2023-03-01T11:35:01;27.87;;;17.80;;
8665;SDS011;4370;48.916;8.380;2023-03-01T11:43:11;23.63;;;16.33;;
8665;SDS011;4370;48.916;8.380;2023-03-01T11:46:02;25.47;;;17.17;;
8665;SDS011;4370;48.916;8.380;2023-03-01T11:51:27;27.00;;;17.23;;
8665;SDS011;4370;48.916;8.380;2023-03-01T11:54:21;27.50;;;17.43;;
8665;SDS011;4370;48.916;8.380;2023-03-01T11:56:51;26.07;;;17.23;;
8665;SDS011;4370;48.916;8.380;2023-03-01T12:00:06;25.37;;;17.47;;
8665;SDS011;4370;48.916;8.380;2023-03-01T12:08:33;25.80;;;17.27;;
8665;SDS011;4370;48.916;8.380;2023-03-01T12:11:15;26.73;;;18.73;;
8665;SDS011;4370;48.916;8.380;2023-03-01T12:14:41;23.90;;;17.30;;
8665;SDS011;4370;48.916;8.380;2023-03-01T12:24:59;27.83;;;17.50;;
8665;SDS011;4370;48.916;8.380;2023-03-01T12:33:14;25.97;;;17.43;;
8665;SDS011;4370;48.916;8.380;2023-03-01T12:38:37;24.53;;;16.97;;
8665;SDS011;4370;48.916;8.380;2023-03-01T12:41:17;27.07;;;17.13;;
8665;SDS011;4370;48.916;8.380;2023-03-01T12:49:44;25.40;;;17.27;;
8665;SDS011;4370;48.916;8.380;2023-03-01T12:52:13;22.97;;;16.60;;
8665;SDS011;4370;48.916;8.380;2023-03-01T12:54:44;26.13;;;18.30;;
8665;SDS011;4370;48.916;8.380;2023-03-01T13:03:02;25.80;;;16.53;;
8665;SDS011;4370;48.916;8.380;2023-03-01T13:06:02;26.10;;;16.53;;
8665;SDS011;4370;48.916;8.380;2023-03-01T13:08:48;26.00;;;17.80;;
8665;SDS011;4370;48.916;8.380;2023-03-01T13:11:21;25.57;;;16.83;;
8665;SDS011;4370;48.916;8.380;2023-03-01T13:13:48;27.10;;;16.87;;
8665;SDS011;4370;48.916;8.380;2023-03-01T13:16:20;26.50;;;16.90;;
8665;SDS011;4370;48.916;8.380;2023-03-01T13:19:08;25.83;;;17.20;;
8665;SDS011;4370;48.916;8.380;2023-03-01T13:21:42;25.93;;;17.67;;
8665;SDS011;4370;48.916;8.380;2023-03-01T13:29:46;27.30;;;18.07;;
8665;SDS011;4370;48.916;8.380;2023-03-01T13:32:20;26.07;;;17.17;;
8665;SDS011;4370;48.916;8.380;2023-03-01T13:34:51;27.53;;;18.00;;
8665;SDS011;4370;48.916;8.380;2023-03-01T13:37:25;26.13;;;17.80;;
8665;SDS011;4370;48.916;8.380;2023-03-01T13:39:54;24.83;;;16.97;;
8665;SDS011;4370;48.916;8.380;2023-03-01T13:42:33;26.03;;;17.60;;
8665;SDS011;4370;48.916;8.380;2023-03-01T13:45:02;27.17;;;17.83;;
8665;SDS011;4370;48.916;8.380;2023-03-01T13:47:30;24.47;;;17.70;;
8665;SDS011;4370;48.916;8.380;2023-03-01T13:50:00;27.63;;;18.03;;
8665;SDS011;4370;48.916;8.380;2023-03-01T13:52:43;24.83;;;17.97;;
8665;SDS011;4370;48.916;8.380;2023-03-01T13:57:40;26.30;;;17.43;;
8665;SDS011;4370;48.916;8.380;2023-03-01T14:00:29;27.27;;;18.17;;
8665;SDS011;4370;48.916;8.380;2023-03-01T14:03:05;24.53;;;16.33;;
8665;SDS011;4370;48.916;8.380;2023-03-01T14:05:34;25.43;;;17.70;;
8665;SDS011;4370;48.916;8.380;2023-03-01T14:08:01;24.73;;;16.63;;
8665;SDS011;4370;48.916;8.380;2023-03-01T14:10:31;24.17;;;17.20;;
8665;SDS011;4370;48.916;8.380;2023-03-01T14:18:46;24.47;;;16.83;;
8665;SDS011;4370;48.916;8.380;2023-03-01T14:21:19;26.93;;;17.07;;
8665;SDS011;4370;48.916;8.380;2023-03-01T14:23:45;23.33;;;16.50;;
8665;SDS011;4370;48.916;8.380;2023-03-01T14:26:11;24.57;;;16.60;;
8665;SDS011;4370;48.916;8.380;2023-03-01T14:28:37;23.30;;;16.83;;
8665;SDS011;4370;48.916;8.380;2023-03-01T14:31:23;23.83;;;16.73;;
8665;SDS011;4370;48.916;8.380;2023-03-01T14:34:02;24.20;;;17.07;;
8665;SDS011;4370;48.916;8.380;2023-03-01T14:36:30;26.73;;;17.27;;
8665;SDS011;4370;48.916;8.380;2023-03-01T14:38:58;24.57;;;17.37;;
8665;SDS011;4370;48.916;8.380;2023-03-01T14:41:29;25.17;;;16.83;;
8665;SDS011;4370;48.916;8.380;2023-03-01T14:44:06;24.87;;;16.90;;
8665;SDS011;4370;48.916;8.380;2023-03-01T14:46:38;26.70;;;16.83;;
8665;SDS011;4370;48.916;8.380;2023-03-01T14:49:21;25.77;;;17.27;;
8665;SDS011;4370;48.916;8.380;2023-03-01T14:52:37;24.17;;;16.03;;
8665;SDS011;4370;48.916;8.380;2023-03-01T14:54:46;26.60;;;16.40;;
8665;SDS011;4370;48.916;8.380;2023-03-01T14:57:17;25.40;;;16.60;;
8665;SDS011;4370;48.916;8.380;2023-03-01T14:59:52;24.10;;;16.97;;
8665;SDS011;4370;48.916;8.380;2023-03-01T15:02:24;26.20;;;16.43;;
8665;SDS011;4370;48.916;8.380;2023-03-01T15:04:52;23.17;;;15.53;;
8665;SDS011;4370;48.916;8.380;2023-03-01T15:07:23;23.50;;;16.27;;
8665;SDS011;4370;48.916;8.380;2023-03-01T15:09:54;23.60;;;15.73;;
8665;SDS011;4370;48.916;8.380;2023-03-01T15:12:41;23.60;;;15.90;;
8665;SDS011;4370;48.916;8.380;2023-03-01T15:15:19;22.80;;;15.83;;
8665;SDS011;4370;48.916;8.380;2023-03-01T15:17:59;22.53;;;15.43;;
8665;SDS011;4370;48.916;8.380;2023-03-01T15:20:26;24.57;;;16.33;;
8665;SDS011;4370;48.916;8.380;2023-03-01T15:22:54;22.43;;;15.70;;
8665;SDS011;4370;48.916;8.380;2023-03-01T15:25:21;23.30;;;16.13;;
8665;SDS011;4370;48.916;8.380;2023-03-01T15:27:49;23.37;;;15.83;;
8665;SDS011;4370;48.916;8.380;2023-03-01T15:30:17;23.10;;;15.03;;
8665;SDS011;4370;48.916;8.380;2023-03-01T15:35:52;24.70;;;15.90;;
8665;SDS011;4370;48.916;8.380;2023-03-01T15:41:22;24.57;;;15.97;;
8665;SDS011;4370;48.916;8.380;2023-03-01T15:43:50;21.90;;;15.23;;
8665;SDS011;4370;48.916;8.380;2023-03-01T15:46:26;23.73;;;16.03;;
8665;SDS011;4370;48.916;8.380;2023-03-01T15:49:03;22.57;;;15.73;;
8665;SDS011;4370;48.916;8.380;2023-03-01T15:51:49;22.27;;;15.60;;
8665;SDS011;4370;48.916;8.380;2023-03-01T15:54:17;24.37;;;15.73;;
8665;SDS011;4370;48.916;8.380;2023-03-01T15:56:45;23.87;;;16.23;;
8665;SDS011;4370;48.916;8.380;2023-03-01T15:59:11;20.83;;;15.17;;
8665;SDS011;4370;48.916;8.380;2023-03-01T16:01:41;24.50;;;15.83;;
8665;SDS011;4370;48.916;8.380;2023-03-01T16:04:09;22.03;;;15.57;;
8665;SDS011;4370;48.916;8.380;2023-03-01T16:06:37;22.13;;;15.20;;
8665;SDS011;4370;48.916;8.380;2023-03-01T16:09:04;22.00;;;15.60;;
8665;SDS011;4370;48.916;8.380;2023-03-01T16:11:30;23.90;;;15.63;;
8665;SDS011;4370;48.916;8.380;2023-03-01T16:13:57;23.37;;;15.70;;
8665;SDS011;4370;48.916;8.380;2023-03-01T16:16:23;24.53;;;16.10;;
8665;SDS011;4370;48.916;8.380;2023-03-01T16:18:49;23.90;;;15.47;;
8665;SDS011;4370;48.916;8.380;2023-03-01T16:21:19;21.17;;;14.70;;
8665;SDS011;4370;48.916;8.380;2023-03-01T16:23:46;21.93;;;14.87;;
8665;SDS011;4370;48.916;8.380;2023-03-01T16:26:12;22.80;;;15.83;;
8665;SDS011;4370;48.916;8.380;2023-03-01T16:28:38;22.87;;;15.37;;
8665;SDS011;4370;48.916;8.380;2023-03-01T16:31:04;21.63;;;14.87;;
8665;SDS011;4370;48.916;8.380;2023-03-01T16:33:30;21.60;;;15.80;;
8665;SDS011;4370;48.916;8.380;2023-03-01T16:35:56;25.67;;;15.53;;
8665;SDS011;4370;48.916;8.380;2023-03-01T16:38:24;21.80;;;15.13;;
8665;SDS011;4370;48.916;8.380;2023-03-01T16:40:51;23.03;;;15.13;;
8665;SDS011;4370;48.916;8.380;2023-03-01T16:43:17;25.70;;;15.67;;